Time;durP1;ratioP1;P1;durP2;ratioP2;P2;SDS_P1;SDS_P2;PMS_P1;PMS_P2;Temp;Humidity;BMP_temperature;BMP_pressure;BME280_temperature;BME280_humidity;BME280_pressure;Samples;Min_cycle;Max_cycle;Signal;HPM_P1;HPM_P2
2022/01/26 00:06:25;;;;;;;9.68;7.78;;;8.50;99.90;;;;;;5041082;28;20234;-64
2022/01/26 00:08:51;;;;;;;9.23;8.23;;;8.50;99.90;;;;;;5040322;28;20245;-64
2022/01/26 00:11:18;;;;;;;13.88;10.18;;;8.50;99.90;;;;;;5044669;28;20222;-63
2022/01/26 00:13:47;;;;;;;9.52;7.10;;;8.50;99.90;;;;;;5038706;28;20234;-64
2022/01/26 00:16:23;;;;;;;12.27;9.23;;;8.50;99.90;;;;;;5042759;28;20223;-64
2022/01/26 00:18:57;;;;;;;12.98;8.63;;;8.40;99.90;;;;;;5048581;28;20310;-63
2022/01/26 00:21:32;;;;;;;11.85;8.43;;;8.50;99.90;;;;;;5048419;28;20225;-64
2022/01/26 00:27:04;;;;;;;11.38;8.73;;;8.40;99.90;;;;;;5032625;28;20218;-63
2022/01/26 00:29:36;;;;;;;16.15;9.48;;;8.40;99.90;;;;;;5041845;28;20635;-64
2022/01/26 00:40:25;;;;;;;12.10;8.90;;;8.50;99.90;;;;;;5055304;28;20245;-64
2022/01/26 00:42:56;;;;;;;13.65;10.40;;;8.40;99.90;;;;;;5041754;28;20223;-63
2022/01/26 00:45:32;;;;;;;14.48;9.95;;;8.50;99.90;;;;;;5043093;28;20576;-63
2022/01/26 00:48:02;;;;;;;12.55;9.82;;;8.40;99.90;;;;;;5053902;28;20239;-64
2022/01/26 00:50:34;;;;;;;16.35;9.43;;;8.40;99.90;;;;;;5043931;28;20259;-64
2022/01/26 00:53:01;;;;;;;11.77;8.60;;;8.40;99.90;;;;;;5048434;28;20224;-64
2022/01/26 00:55:28;;;;;;;13.48;9.90;;;8.50;99.90;;;;;;5046198;28;20246;-63
2022/01/26 00:57:55;;;;;;;14.95;10.73;;;8.40;99.90;;;;;;5041680;28;20218;-63
2022/01/26 01:00:25;;;;;;;13.85;10.77;;;8.40;99.90;;;;;;5042767;28;20688;-64
2022/01/26 01:02:54;;;;;;;12.35;9.90;;;8.50;99.90;;;;;;5049350;28;20226;-64
2022/01/26 01:05:25;;;;;;;13.30;8.75;;;8.50;99.90;;;;;;5041950;28;20223;-64
2022/01/26 01:07:59;;;;;;;13.80;10.23;;;8.50;99.90;;;;;;5042027;28;20242;-64
2022/01/26 01:10:26;;;;;;;15.55;10.25;;;8.50;99.90;;;;;;5047476;28;20229;-64
2022/01/26 01:12:57;;;;;;;17.05;10.50;;;8.50;99.90;;;;;;5043377;28;20223;-63
2022/01/26 01:15:26;;;;;;;12.68;9.77;;;8.40;99.90;;;;;;5041029;28;20219;-64
2022/01/26 01:18:04;;;;;;;13.70;10.18;;;8.40;99.90;;;;;;5045032;28;20229;-64
2022/01/26 01:20:47;;;;;;;11.95;9.43;;;8.40;99.90;;;;;;5046878;28;20572;-64
2022/01/26 01:23:43;;;;;;;14.70;10.68;;;8.40;99.90;;;;;;5047868;28;20245;-64
2022/01/26 01:26:36;;;;;;;17.00;9.93;;;8.50;99.90;;;;;;5045810;28;20233;-64
2022/01/26 01:29:16;;;;;;;15.07;9.82;;;8.40;99.90;;;;;;5042581;28;20304;-63
2022/01/26 01:31:49;;;;;;;14.75;10.00;;;8.30;99.90;;;;;;5040790;28;20238;-64
2022/01/26 01:34:18;;;;;;;16.50;12.35;;;8.40;99.90;;;;;;5042500;28;20285;-64
2022/01/26 01:36:50;;;;;;;15.55;10.88;;;8.40;99.90;;;;;;5051584;28;20216;-63
2022/01/26 01:39:18;;;;;;;14.02;10.40;;;8.30;99.90;;;;;;5053910;28;20230;-64
2022/01/26 01:41:47;;;;;;;13.45;9.02;;;8.30;99.90;;;;;;5040762;28;20226;-63
2022/01/26 01:44:16;;;;;;;14.10;9.52;;;8.20;99.90;;;;;;5051703;28;20233;-64
2022/01/26 01:46:44;;;;;;;14.93;10.07;;;8.30;99.90;;;;;;5052655;28;20573;-64
2022/01/26 01:49:13;;;;;;;15.18;10.35;;;8.30;99.90;;;;;;5053697;28;20698;-65
2022/01/26 01:51:51;;;;;;;12.65;9.38;;;8.30;99.90;;;;;;5041306;28;20237;-64
2022/01/26 01:54:19;;;;;;;13.57;9.65;;;8.30;99.90;;;;;;5040409;28;20288;-64
2022/01/26 01:56:49;;;;;;;12.30;9.82;;;8.30;99.90;;;;;;5044524;28;20243;-64
2022/01/26 01:59:16;;;;;;;13.43;9.15;;;8.30;99.90;;;;;;5046815;28;20627;-64
2022/01/26 02:01:45;;;;;;;10.80;8.73;;;8.20;99.90;;;;;;5039812;28;20232;-64
2022/01/26 02:04:12;;;;;;;15.43;9.68;;;8.20;99.90;;;;;;5048802;28;20706;-64
2022/01/26 02:06:40;;;;;;;12.35;8.68;;;8.20;99.90;;;;;;5044964;28;20227;-64
2022/01/26 02:09:07;;;;;;;10.45;8.90;;;8.20;99.90;;;;;;5044689;28;20235;-64
2022/01/26 02:11:34;;;;;;;10.60;7.88;;;8.20;99.90;;;;;;5041424;28;20231;-64
2022/01/26 02:14:05;;;;;;;13.55;8.27;;;8.20;99.90;;;;;;5046744;28;20307;-64
2022/01/26 02:16:46;;;;;;;10.98;8.30;;;8.20;99.90;;;;;;5046260;28;20967;-64
2022/01/26 02:49:48;;;;;;;13.57;8.68;;;8.20;99.90;;;;;;5050879;28;20253;-64
2022/01/26 02:52:30;;;;;;;12.10;8.25;;;8.20;99.90;;;;;;5045645;28;20655;-64
2022/01/26 02:55:20;;;;;;;10.65;7.85;;;8.20;99.90;;;;;;5041224;28;20236;-64
2022/01/26 02:58:06;;;;;;;14.68;8.93;;;8.10;99.90;;;;;;5039246;28;20309;-64
2022/01/26 03:00:42;;;;;;;10.70;7.43;;;8.10;99.90;;;;;;5039295;28;20233;-64
2022/01/26 03:03:16;;;;;;;12.43;9.70;;;8.20;99.90;;;;;;5048005;28;21040;-64
2022/01/26 03:05:50;;;;;;;11.40;8.40;;;8.10;99.90;;;;;;5039271;28;20221;-64
2022/01/26 03:08:25;;;;;;;15.98;9.85;;;8.20;99.90;;;;;;5044004;28;20222;-64
2022/01/26 03:10:56;;;;;;;11.55;8.88;;;8.10;99.90;;;;;;5038765;28;20299;-64
2022/01/26 03:13:27;;;;;;;14.38;8.50;;;8.00;99.90;;;;;;5039460;28;20227;-64
2022/01/26 03:15:58;;;;;;;11.65;7.95;;;8.10;99.90;;;;;;5039601;28;20310;-64
2022/01/26 03:18:47;;;;;;;15.05;9.43;;;8.10;99.90;;;;;;5039261;28;20311;-64
2022/01/26 03:21:16;;;;;;;11.85;8.32;;;8.10;99.90;;;;;;5040993;28;20234;-64
2022/01/26 03:29:26;;;;;;;13.50;9.38;;;8.10;99.90;;;;;;5041660;28;20240;-64
2022/01/26 03:34:33;;;;;;;15.90;10.50;;;8.10;99.90;;;;;;5015948;28;20974;-64
2022/01/26 03:37:05;;;;;;;17.40;11.30;;;8.10;99.90;;;;;;5044652;28;20567;-64
2022/01/26 03:39:40;;;;;;;16.52;11.43;;;8.10;99.90;;;;;;5045420;28;20222;-64
2022/01/26 03:42:13;;;;;;;16.85;11.00;;;8.10;99.90;;;;;;5040255;28;20308;-64
2022/01/26 03:44:40;;;;;;;15.63;11.40;;;8.10;99.90;;;;;;5039449;28;20234;-64
2022/01/26 03:47:07;;;;;;;19.60;11.82;;;8.20;99.90;;;;;;5045532;28;20227;-64
2022/01/26 03:49:35;;;;;;;16.85;11.63;;;8.20;99.90;;;;;;5053209;28;20237;-64
2022/01/26 03:52:02;;;;;;;17.67;11.02;;;8.10;99.90;;;;;;5045903;28;20215;-64
2022/01/26 03:54:29;;;;;;;16.55;11.50;;;8.10;99.90;;;;;;5042384;28;20218;-64
2022/01/26 03:56:55;;;;;;;15.48;11.02;;;8.10;99.90;;;;;;5046708;28;20249;-64
2022/01/26 03:59:24;;;;;;;19.70;13.07;;;8.10;99.90;;;;;;5049231;28;20224;-65
2022/01/26 04:01:51;;;;;;;21.23;12.30;;;8.00;99.90;;;;;;5039218;28;20225;-65
2022/01/26 04:04:18;;;;;;;19.10;11.95;;;8.00;99.90;;;;;;5048925;28;20227;-64
2022/01/26 04:06:45;;;;;;;15.75;8.88;;;8.00;99.90;;;;;;5046741;28;20233;-65
2022/01/26 04:09:14;;;;;;;17.50;11.93;;;8.00;99.90;;;;;;5042461;28;20312;-64
2022/01/26 04:11:43;;;;;;;15.75;10.60;;;8.00;99.90;;;;;;5044301;28;20312;-63
2022/01/26 04:14:13;;;;;;;15.18;10.70;;;8.00;99.90;;;;;;5049369;28;20305;-63
2022/01/26 04:16:47;;;;;;;14.60;10.23;;;8.00;99.90;;;;;;5047230;28;20245;-63
2022/01/26 04:19:14;;;;;;;16.05;10.48;;;8.00;99.90;;;;;;5042272;28;20249;-63
2022/01/26 04:22:03;;;;;;;17.58;10.52;;;8.00;99.90;;;;;;5042035;28;20228;-63
2022/01/26 04:24:35;;;;;;;18.35;11.18;;;8.00;99.90;;;;;;5045913;28;20236;-63
2022/01/26 04:27:07;;;;;;;16.58;10.82;;;8.00;99.90;;;;;;5049162;28;20576;-63
2022/01/26 04:29:35;;;;;;;16.77;10.85;;;7.90;99.90;;;;;;5046203;28;20282;-63
2022/01/26 04:32:05;;;;;;;17.17;12.23;;;7.90;99.90;;;;;;5042134;28;20276;-63
2022/01/26 04:34:33;;;;;;;19.20;12.85;;;7.90;99.90;;;;;;5043441;28;20227;-63
2022/01/26 04:37:08;;;;;;;15.48;11.10;;;8.00;99.90;;;;;;5054137;28;20222;-63
2022/01/26 04:39:40;;;;;;;16.23;10.95;;;8.00;99.90;;;;;;5054273;28;20221;-64
2022/01/26 04:42:12;;;;;;;18.92;12.18;;;8.10;99.90;;;;;;5043326;28;20311;-63
2022/01/26 04:44:44;;;;;;;16.70;11.57;;;8.00;99.90;;;;;;5041090;28;20232;-63
2022/01/26 04:47:12;;;;;;;18.20;12.07;;;8.10;99.90;;;;;;5055209;28;20249;-63
2022/01/26 04:49:39;;;;;;;15.32;12.02;;;8.10;99.90;;;;;;5054590;28;20228;-63
2022/01/26 04:52:06;;;;;;;18.55;11.55;;;8.00;99.90;;;;;;5045481;28;20230;-64
2022/01/26 04:54:33;;;;;;;21.20;13.15;;;8.00;99.90;;;;;;5048016;28;20702;-64
2022/01/26 04:57:00;;;;;;;17.45;10.80;;;8.00;99.90;;;;;;5044396;28;20219;-64
2022/01/26 04:59:27;;;;;;;20.27;10.93;;;8.00;99.90;;;;;;5041351;28;20217;-65
2022/01/26 05:01:54;;;;;;;19.30;11.90;;;8.00;99.90;;;;;;5044586;28;20241;-64
2022/01/26 05:04:22;;;;;;;17.20;10.65;;;8.00;99.90;;;;;;5038069;28;20246;-64
2022/01/26 05:06:49;;;;;;;18.42;12.00;;;8.00;99.90;;;;;;5044214;28;20239;-65
2022/01/26 05:09:15;;;;;;;19.23;11.10;;;8.00;99.90;;;;;;5048119;28;20550;-64
2022/01/26 05:11:45;;;;;;;19.40;12.15;;;8.00;99.90;;;;;;5045363;28;20313;-64
2022/01/26 05:14:11;;;;;;;18.70;11.88;;;8.00;99.90;;;;;;5041515;28;20300;-64
2022/01/26 05:16:38;;;;;;;15.50;9.68;;;8.00;99.90;;;;;;5042725;28;20245;-64
2022/01/26 05:19:06;;;;;;;15.68;10.88;;;8.00;99.90;;;;;;5048018;28;20222;-64
2022/01/26 05:21:35;;;;;;;17.35;11.05;;;8.00;99.90;;;;;;5046073;28;20254;-64
2022/01/26 05:24:02;;;;;;;14.57;10.10;;;8.10;99.90;;;;;;5048643;28;20754;-64
2022/01/26 05:26:29;;;;;;;16.10;10.10;;;8.00;99.90;;;;;;5046803;28;20548;-64
2022/01/26 05:28:56;;;;;;;16.50;10.32;;;7.90;99.90;;;;;;5041037;28;20691;-64
2022/01/26 05:31:23;;;;;;;15.73;9.88;;;7.90;99.90;;;;;;5041277;28;20310;-65
2022/01/26 05:33:51;;;;;;;15.60;9.88;;;7.90;99.90;;;;;;5047966;28;20566;-62
2022/01/26 05:36:18;;;;;;;15.05;10.02;;;7.90;99.90;;;;;;5046942;28;20223;-63
2022/01/26 05:38:47;;;;;;;14.65;9.30;;;7.80;99.90;;;;;;5041076;28;20293;-64
2022/01/26 05:41:14;;;;;;;14.02;9.57;;;7.80;99.90;;;;;;5040934;28;20239;-63
2022/01/26 05:43:41;;;;;;;12.38;8.27;;;7.80;99.90;;;;;;5045837;28;20222;-64
2022/01/26 05:46:13;;;;;;;10.90;7.75;;;7.80;99.90;;;;;;5048588;28;20694;-63
2022/01/26 05:48:44;;;;;;;9.60;7.72;;;7.80;99.90;;;;;;5053720;28;20230;-64
2022/01/26 05:51:11;;;;;;;10.23;6.78;;;7.80;99.90;;;;;;5040487;28;20288;-64
2022/01/26 05:53:39;;;;;;;10.00;7.32;;;7.80;99.90;;;;;;5043748;28;20230;-64
2022/01/26 05:56:08;;;;;;;17.65;9.00;;;7.80;99.90;;;;;;5047572;28;20227;-64
2022/01/26 05:58:35;;;;;;;12.02;8.38;;;7.80;99.90;;;;;;5043934;28;20567;-63
2022/01/26 06:01:03;;;;;;;13.48;8.18;;;7.80;99.90;;;;;;5039898;28;20226;-64
2022/01/26 06:03:31;;;;;;;13.70;8.80;;;7.70;99.90;;;;;;5043978;28;20233;-65
2022/01/26 06:05:58;;;;;;;12.38;7.38;;;7.70;99.90;;;;;;5040317;28;20692;-65
2022/01/26 06:08:26;;;;;;;16.05;10.05;;;7.70;99.90;;;;;;5043002;28;20602;-64
2022/01/26 06:10:55;;;;;;;13.23;7.30;;;7.70;99.90;;;;;;5046510;28;20218;-64
2022/01/26 06:13:23;;;;;;;12.77;9.25;;;7.70;99.90;;;;;;5045022;28;20225;-64
2022/01/26 06:15:50;;;;;;;17.85;10.80;;;7.70;99.90;;;;;;5047627;28;20219;-64
2022/01/26 06:18:17;;;;;;;18.95;11.35;;;7.70;99.90;;;;;;5045205;28;20220;-64
2022/01/26 06:20:44;;;;;;;12.93;8.82;;;7.60;99.90;;;;;;5039292;28;20226;-64
2022/01/26 06:23:11;;;;;;;15.98;11.60;;;7.70;99.90;;;;;;5041331;28;20235;-64
2022/01/26 06:25:38;;;;;;;16.40;10.85;;;7.60;99.90;;;;;;5046370;28;20230;-64
2022/01/26 06:28:11;;;;;;;15.43;10.43;;;7.60;99.90;;;;;;5045640;28;20538;-64
2022/01/26 06:30:40;;;;;;;18.02;11.70;;;7.60;99.90;;;;;;5039261;28;20233;-64
2022/01/26 06:33:08;;;;;;;18.58;11.63;;;7.60;99.90;;;;;;5039791;28;20227;-64
2022/01/26 06:35:35;;;;;;;16.42;10.35;;;7.60;99.90;;;;;;5045746;28;20576;-64
2022/01/26 06:38:02;;;;;;;15.27;10.23;;;7.70;99.90;;;;;;5038865;28;20234;-64
2022/01/26 06:40:29;;;;;;;17.65;11.77;;;7.60;99.90;;;;;;5046621;28;20230;-64
2022/01/26 06:42:59;;;;;;;16.38;10.63;;;7.60;99.90;;;;;;5040814;28;20218;-64
2022/01/26 06:45:29;;;;;;;16.77;9.70;;;7.60;99.90;;;;;;5039340;28;20218;-64
2022/01/26 06:50:56;;;;;;;22.25;12.68;;;7.70;99.90;;;;;;5030223;28;20233;-64
2022/01/26 06:53:23;;;;;;;18.45;12.18;;;7.70;99.90;;;;;;5017750;28;20235;-64
2022/01/26 06:55:50;;;;;;;20.55;13.55;;;7.70;99.90;;;;;;5032878;28;20223;-64
2022/01/26 06:58:17;;;;;;;23.55;13.00;;;7.60;99.90;;;;;;5046281;28;20217;-64
2022/01/26 07:00:44;;;;;;;19.65;12.27;;;7.60;99.90;;;;;;5039867;28;20226;-64
2022/01/26 07:03:12;;;;;;;23.73;14.43;;;7.60;99.90;;;;;;5048081;28;20226;-64
2022/01/26 07:05:40;;;;;;;24.58;13.60;;;7.60;99.90;;;;;;5040004;28;20527;-64
2022/01/26 07:08:07;;;;;;;23.85;14.02;;;7.60;99.90;;;;;;5038429;28;20299;-64
2022/01/26 07:10:34;;;;;;;24.00;12.68;;;7.60;99.90;;;;;;5032018;28;20266;-64
2022/01/26 07:13:02;;;;;;;21.35;12.07;;;7.50;99.90;;;;;;5032723;28;20233;-64
2022/01/26 07:23:44;;;;;;;21.67;12.85;;;7.60;99.90;;;;;;5032645;28;20229;-64
2022/01/26 07:26:11;;;;;;;18.80;11.30;;;7.50;99.90;;;;;;5032263;28;20231;-65
2022/01/26 07:28:39;;;;;;;16.95;11.40;;;7.50;99.90;;;;;;5032828;28;20712;-65
2022/01/26 07:31:07;;;;;;;20.77;12.40;;;7.50;99.90;;;;;;5032154;28;20892;-64
2022/01/26 07:33:37;;;;;;;21.67;12.35;;;7.40;99.90;;;;;;5032695;28;20243;-64
2022/01/26 07:36:07;;;;;;;19.80;11.98;;;7.50;99.90;;;;;;5032235;28;20627;-63
2022/01/26 07:38:34;;;;;;;18.13;12.23;;;7.50;99.90;;;;;;5032463;28;20226;-63
2022/01/26 07:41:01;;;;;;;21.50;12.55;;;7.50;99.90;;;;;;5031924;28;20240;-64
2022/01/26 07:43:28;;;;;;;16.60;10.30;;;7.50;99.90;;;;;;5032636;28;20679;-64
2022/01/26 07:45:55;;;;;;;18.08;9.75;;;7.60;99.90;;;;;;5032453;28;20229;-64
2022/01/26 07:48:23;;;;;;;17.65;11.50;;;7.60;99.90;;;;;;5032290;28;20860;-64
2022/01/26 07:50:52;;;;;;;16.92;10.52;;;7.60;99.90;;;;;;5032311;28;20688;-65
2022/01/26 07:53:19;;;;;;;22.90;12.07;;;7.60;99.90;;;;;;5031830;28;20246;-63
2022/01/26 07:55:48;;;;;;;19.13;12.20;;;7.60;99.90;;;;;;5032575;28;20238;-64
2022/01/26 07:58:15;;;;;;;21.80;12.90;;;7.50;99.90;;;;;;5031982;28;20223;-64
2022/01/26 08:00:42;;;;;;;22.75;12.77;;;7.60;99.90;;;;;;5032434;28;20328;-65
2022/01/26 08:03:09;;;;;;;21.42;12.98;;;7.60;99.90;;;;;;5031829;28;20234;-63
2022/01/26 08:05:36;;;;;;;21.48;13.32;;;7.60;99.90;;;;;;5032407;28;20231;-63
2022/01/26 08:08:05;;;;;;;21.45;13.38;;;7.60;99.90;;;;;;5031902;28;20226;-64
2022/01/26 08:10:31;;;;;;;19.35;11.20;;;7.60;99.90;;;;;;5032077;28;20226;-63
2022/01/26 08:12:58;;;;;;;20.45;11.07;;;7.60;99.90;;;;;;5032331;28;20231;-64
2022/01/26 08:15:26;;;;;;;17.88;10.68;;;7.60;99.90;;;;;;5031971;28;20979;-64
2022/01/26 08:17:53;;;;;;;19.05;11.95;;;7.60;99.90;;;;;;5032144;28;20230;-64
2022/01/26 08:20:22;;;;;;;19.50;12.52;;;7.60;99.90;;;;;;5031798;28;20284;-64
2022/01/26 08:22:49;;;;;;;16.80;11.70;;;7.70;99.90;;;;;;5032102;28;20575;-64
2022/01/26 08:25:18;;;;;;;20.20;11.40;;;7.60;99.90;;;;;;5031721;28;20772;-64
2022/01/26 08:27:52;;;;;;;20.80;11.60;;;7.60;99.90;;;;;;5032262;28;20232;-64
2022/01/26 08:30:19;;;;;;;18.65;11.60;;;7.60;99.90;;;;;;5031852;28;20316;-64
2022/01/26 08:32:47;;;;;;;22.63;13.27;;;7.60;99.90;;;;;;5035693;28;20237;-64
2022/01/26 08:35:14;;;;;;;21.35;12.30;;;7.60;99.90;;;;;;5035335;28;20231;-64
2022/01/26 08:37:41;;;;;;;19.60;12.60;;;7.60;99.90;;;;;;5035501;28;20228;-63
2022/01/26 08:40:08;;;;;;;23.67;12.25;;;7.60;99.90;;;;;;5035081;28;20230;-63
2022/01/26 08:42:37;;;;;;;24.77;13.25;;;7.60;99.90;;;;;;5035646;28;20224;-64
2022/01/26 08:45:05;;;;;;;15.77;12.05;;;7.60;99.90;;;;;;5035001;28;20251;-64
2022/01/26 08:47:32;;;;;;;20.45;11.75;;;7.60;99.90;;;;;;5035515;28;20230;-64
2022/01/26 08:49:59;;;;;;;18.08;10.65;;;7.60;99.90;;;;;;5035432;28;20293;-63
2022/01/26 08:52:26;;;;;;;14.38;10.48;;;7.60;99.90;;;;;;5034748;28;20222;-63
2022/01/26 08:54:53;;;;;;;19.67;11.55;;;7.60;99.90;;;;;;5035268;28;20230;-64
2022/01/26 08:57:20;;;;;;;16.05;11.63;;;7.60;99.90;;;;;;5034988;28;20241;-63
2022/01/26 08:59:48;;;;;;;17.20;9.82;;;7.70;99.90;;;;;;5035204;28;20262;-64
2022/01/26 09:02:15;;;;;;;18.60;12.23;;;7.70;99.90;;;;;;5034771;28;20242;-62
2022/01/26 09:04:41;;;;;;;18.48;11.88;;;7.60;99.90;;;;;;5035133;28;20242;-64
2022/01/26 09:07:09;;;;;;;15.48;10.10;;;7.70;99.90;;;;;;5034640;28;20226;-63
2022/01/26 09:09:43;;;;;;;15.50;10.45;;;7.70;99.90;;;;;;5034872;28;20239;-63
2022/01/26 09:12:12;;;;;;;13.75;10.38;;;7.70;99.90;;;;;;5034637;28;20227;-64
2022/01/26 09:14:39;;;;;;;17.95;11.13;;;7.70;99.90;;;;;;5035000;28;20237;-64
2022/01/26 09:17:08;;;;;;;16.00;10.05;;;7.70;99.90;;;;;;5034592;28;20224;-64
2022/01/26 09:19:36;;;;;;;15.43;11.13;;;7.70;99.90;;;;;;5034829;28;20318;-64
2022/01/26 09:22:07;;;;;;;15.20;10.18;;;7.70;99.90;;;;;;5034694;28;20228;-63
2022/01/26 09:24:36;;;;;;;16.85;10.25;;;7.80;99.90;;;;;;5034365;28;20227;-64
2022/01/26 09:27:06;;;;;;;15.80;10.65;;;7.80;99.90;;;;;;5034852;28;20231;-64
2022/01/26 09:29:34;;;;;;;16.52;10.20;;;7.80;99.90;;;;;;5034166;28;20224;-64
2022/01/26 09:32:01;;;;;;;15.63;11.63;;;7.80;99.90;;;;;;5034491;28;20303;-63
2022/01/26 09:34:35;;;;;;;16.33;10.77;;;7.80;99.90;;;;;;5034373;28;20226;-63
2022/01/26 09:37:11;;;;;;;16.27;10.07;;;7.80;99.90;;;;;;5034529;28;20251;-64
2022/01/26 09:39:40;;;;;;;19.95;11.65;;;7.80;99.90;;;;;;5034097;28;20306;-64
2022/01/26 09:42:08;;;;;;;16.13;11.18;;;7.80;99.90;;;;;;5034210;28;20231;-64
2022/01/26 09:44:35;;;;;;;14.73;9.80;;;7.80;99.90;;;;;;5034047;28;20573;-64
2022/01/26 09:47:02;;;;;;;16.08;9.93;;;7.90;99.90;;;;;;5048027;28;20223;-64
2022/01/26 09:49:32;;;;;;;17.80;10.73;;;7.90;99.90;;;;;;5053681;28;20219;-63
2022/01/26 09:52:02;;;;;;;16.23;10.45;;;8.00;99.90;;;;;;5054000;28;20249;-64
2022/01/26 09:54:30;;;;;;;18.90;12.32;;;7.90;99.90;;;;;;5043606;28;20211;-64
2022/01/26 09:57:02;;;;;;;14.32;9.95;;;7.90;99.90;;;;;;5053925;28;20734;-64
2022/01/26 09:59:29;;;;;;;16.25;10.43;;;7.90;99.90;;;;;;5045453;28;20223;-64
2022/01/26 10:01:56;;;;;;;14.13;10.23;;;7.90;99.90;;;;;;5034735;28;20224;-64
2022/01/26 10:04:26;;;;;;;13.63;9.30;;;7.90;99.90;;;;;;5033503;28;20573;-64
2022/01/26 10:07:15;;;;;;;15.02;11.35;;;7.90;99.90;;;;;;5033839;28;20755;-64
2022/01/26 10:15:31;;;;;;;15.15;10.23;;;7.90;99.90;;;;;;5033900;28;20226;-64
2022/01/26 10:18:05;;;;;;;19.80;11.07;;;7.80;99.90;;;;;;5033684;28;20229;-63
2022/01/26 10:20:42;;;;;;;14.90;9.90;;;7.80;99.90;;;;;;5047157;28;20243;-64
2022/01/26 10:23:16;;;;;;;12.55;10.13;;;7.80;99.90;;;;;;5053024;28;20230;-64
2022/01/26 10:25:44;;;;;;;14.80;9.15;;;7.70;99.90;;;;;;5053490;28;20254;-64
2022/01/26 10:28:13;;;;;;;17.17;10.73;;;7.80;99.90;;;;;;5050116;28;20314;-64
2022/01/26 10:30:45;;;;;;;15.38;10.50;;;7.80;99.90;;;;;;5039211;28;20299;-64
2022/01/26 10:33:13;;;;;;;19.25;9.70;;;7.80;99.90;;;;;;5060622;28;20219;-64
2022/01/26 10:35:40;;;;;;;16.70;10.77;;;7.90;99.90;;;;;;5064885;28;20236;-64
2022/01/26 10:38:07;;;;;;;17.33;9.82;;;7.90;99.90;;;;;;5057367;28;20225;-64
2022/01/26 10:40:38;;;;;;;15.73;7.72;;;7.80;99.90;;;;;;5073039;28;20653;-65
2022/01/26 10:43:09;;;;;;;11.45;7.55;;;7.90;99.90;;;;;;5072686;28;20574;-64
2022/01/26 10:45:51;;;;;;;20.73;9.73;;;8.00;99.90;;;;;;5072091;28;20232;-64
2022/01/26 10:48:25;;;;;;;14.02;8.05;;;8.00;99.90;;;;;;5061531;28;20281;-64
2022/01/26 10:51:32;;;;;;;15.38;8.57;;;8.10;99.90;;;;;;5072477;28;20268;-64
2022/01/26 10:54:19;;;;;;;14.50;9.50;;;8.10;99.90;;;;;;5061681;28;20224;-64
2022/01/26 10:56:48;;;;;;;11.15;7.00;;;8.10;99.90;;;;;;5072397;28;20231;-64
2022/01/26 10:59:16;;;;;;;12.80;7.80;;;8.20;99.90;;;;;;5072754;28;20683;-64
2022/01/26 11:01:43;;;;;;;10.15;8.18;;;8.20;99.90;;;;;;5071961;28;20234;-64
2022/01/26 11:04:10;;;;;;;11.07;9.32;;;8.20;99.90;;;;;;5072850;28;20664;-64
2022/01/26 11:06:38;;;;;;;11.27;7.22;;;8.20;99.90;;;;;;5072588;28;20684;-64
2022/01/26 11:09:11;;;;;;;8.90;7.15;;;8.10;99.90;;;;;;5072177;28;20221;-64
2022/01/26 11:11:40;;;;;;;12.63;6.63;;;8.10;99.90;;;;;;5063988;28;20238;-64
2022/01/26 11:14:21;;;;;;;9.80;7.70;;;8.00;99.90;;;;;;5051232;28;20229;-64
2022/01/26 11:16:50;;;;;;;10.15;6.70;;;8.00;99.90;;;;;;5032533;28;20246;-64
2022/01/26 11:19:17;;;;;;;9.27;6.20;;;8.00;99.90;;;;;;5050963;28;20230;-64
2022/01/26 11:21:44;;;;;;;9.43;6.65;;;8.00;99.90;;;;;;5049052;28;20236;-64
2022/01/26 11:24:16;;;;;;;11.45;7.60;;;8.00;99.90;;;;;;5052302;28;20230;-64
2022/01/26 11:26:45;;;;;;;9.23;6.50;;;8.00;99.90;;;;;;5052398;28;20572;-64
2022/01/26 11:29:23;;;;;;;8.27;7.05;;;8.00;99.90;;;;;;5051942;28;20872;-64
2022/01/26 11:32:04;;;;;;;8.93;6.50;;;7.90;99.90;;;;;;5051882;28;20296;-64
2022/01/26 11:34:32;;;;;;;11.65;8.27;;;7.90;99.90;;;;;;5046534;28;20225;-64
2022/01/26 11:37:00;;;;;;;11.90;8.20;;;7.80;99.90;;;;;;5051766;28;20249;-64
2022/01/26 11:45:03;;;;;;;9.00;7.00;;;7.70;99.90;;;;;;5051799;28;20561;-64
2022/01/26 11:45:30;;;;;;;8.63;6.85;;;7.70;99.90;;;;;;5043433;28;21076;-64
2022/01/26 11:48:05;;;;;;;9.75;7.60;;;7.70;99.90;;;;;;5048729;28;20220;-64
2022/01/26 11:50:33;;;;;;;13.63;8.68;;;7.60;99.90;;;;;;5049767;28;20250;-64
2022/01/26 11:53:01;;;;;;;15.60;8.10;;;7.60;99.90;;;;;;5050373;28;20233;-64
2022/01/26 11:55:36;;;;;;;12.63;7.50;;;7.60;99.90;;;;;;5050947;28;20226;-64
2022/01/26 11:58:21;;;;;;;13.95;8.02;;;7.60;99.90;;;;;;5040612;28;20242;-64
2022/01/26 12:01:10;;;;;;;9.80;7.10;;;7.50;99.90;;;;;;5051600;28;20238;-64
2022/01/26 12:03:44;;;;;;;11.38;8.40;;;7.50;99.90;;;;;;5050054;28;20234;-64
2022/01/26 12:06:18;;;;;;;12.85;7.65;;;7.50;99.90;;;;;;5063480;28;20312;-64
2022/01/26 12:08:46;;;;;;;14.65;7.88;;;7.50;99.90;;;;;;5055527;28;20228;-64
2022/01/26 12:11:14;;;;;;;13.40;8.65;;;7.50;99.90;;;;;;5051275;28;20694;-64
2022/01/26 12:13:42;;;;;;;10.98;7.22;;;7.50;99.90;;;;;;5055309;28;20237;-64
2022/01/26 12:16:15;;;;;;;11.20;7.85;;;7.50;99.90;;;;;;5055639;28;20222;-64
2022/01/26 12:18:51;;;;;;;15.32;7.22;;;7.50;99.90;;;;;;5055146;28;20237;-64
2022/01/26 12:35:48;;;;;;;13.82;7.72;;;7.50;99.90;;;;;;5035120;28;20580;-63
2022/01/26 12:38:22;;;;;;;7.40;5.32;;;7.40;99.90;;;;;;5047759;28;20236;-63
2022/01/26 12:41:17;;;;;;;9.07;6.20;;;7.40;99.90;;;;;;5055014;28;20998;-63
2022/01/26 12:43:47;;;;;;;6.03;5.00;;;7.40;99.90;;;;;;5044125;28;20218;-64
2022/01/26 12:46:16;;;;;;;14.95;8.13;;;7.40;99.90;;;;;;5069326;28;20233;-64
2022/01/26 12:48:50;;;;;;;9.38;6.38;;;7.50;99.90;;;;;;5056092;28;20229;-64
2022/01/26 12:51:18;;;;;;;9.15;6.15;;;7.50;99.90;;;;;;5059544;28;20243;-64
2022/01/26 12:53:44;;;;;;;10.45;6.85;;;7.40;99.90;;;;;;5057057;28;20568;-64
2022/01/26 12:56:13;;;;;;;9.32;6.18;;;7.50;99.90;;;;;;5070633;28;20241;-64
2022/01/26 12:58:42;;;;;;;9.45;6.30;;;7.50;99.90;;;;;;5054617;28;20217;-65
2022/01/26 13:01:11;;;;;;;8.85;6.38;;;7.50;99.90;;;;;;5054081;28;20250;-64
2022/01/26 13:03:40;;;;;;;9.25;6.72;;;7.50;99.90;;;;;;5059393;28;20571;-63
2022/01/26 13:06:10;;;;;;;10.48;6.53;;;7.40;99.90;;;;;;5036644;28;20222;-64
2022/01/26 13:08:45;;;;;;;9.20;6.10;;;7.40;99.90;;;;;;5053689;28;20225;-64
2022/01/26 13:11:12;;;;;;;9.43;6.45;;;7.30;99.90;;;;;;5049341;28;20233;-64
2022/01/26 13:13:40;;;;;;;9.15;6.63;;;7.30;99.90;;;;;;5054388;28;20242;-64
2022/01/26 13:16:33;;;;;;;10.30;6.72;;;7.30;99.90;;;;;;5073878;28;20288;-64
2022/01/26 13:19:11;;;;;;;12.23;6.70;;;7.30;99.90;;;;;;5074306;28;20222;-63
2022/01/26 13:21:59;;;;;;;11.85;6.82;;;7.30;99.90;;;;;;5071045;28;20696;-63
2022/01/26 13:27:24;;;;;;;15.98;7.35;;;7.30;99.90;;;;;;5037032;28;20222;-64
2022/01/26 13:30:02;;;;;;;11.77;7.65;;;7.30;99.90;;;;;;5060624;28;20726;-63
2022/01/26 13:33:01;;;;;;;11.95;7.88;;;7.30;99.90;;;;;;5052274;28;20762;-63
2022/01/26 13:35:44;;;;;;;12.40;7.43;;;7.30;99.90;;;;;;5059478;28;20224;-64
2022/01/26 13:38:33;;;;;;;14.25;8.15;;;7.30;99.90;;;;;;5060418;28;20280;-63
2022/01/26 13:41:09;;;;;;;10.52;7.10;;;7.30;99.90;;;;;;5055490;28;21349;-65
2022/01/26 13:44:08;;;;;;;12.57;7.25;;;7.20;99.90;;;;;;5051723;28;20229;-63
2022/01/26 13:47:00;;;;;;;13.00;7.70;;;7.20;99.90;;;;;;5049823;28;20242;-63
2022/01/26 13:52:25;;;;;;;16.17;10.23;;;7.30;99.90;;;;;;5042320;28;20241;-64
2022/01/26 14:00:23;;;;;;;24.38;13.20;;;7.30;99.90;;;;;;5046586;28;20222;-64
2022/01/26 14:02:56;;;;;;;24.77;12.52;;;7.30;99.90;;;;;;5053684;28;20221;-64
2022/01/26 14:05:23;;;;;;;23.35;13.05;;;7.30;99.90;;;;;;5053163;28;20230;-64
2022/01/26 14:07:50;;;;;;;23.13;13.57;;;7.30;99.90;;;;;;5053567;28;20238;-65
2022/01/26 14:10:20;;;;;;;22.27;12.45;;;7.40;99.90;;;;;;5053348;28;20237;-64
2022/01/26 14:12:48;;;;;;;28.05;12.55;;;7.30;99.90;;;;;;5052203;28;20296;-64
2022/01/26 14:15:21;;;;;;;24.48;11.50;;;7.30;99.90;;;;;;5060904;28;20233;-65
2022/01/26 14:20:49;;;;;;;24.52;12.88;;;7.30;99.90;;;;;;5031131;28;20535;-64
2022/01/26 14:23:42;;;;;;;29.58;13.55;;;7.30;99.90;;;;;;5033006;28;20309;-64
2022/01/26 14:26:12;;;;;;;25.58;12.55;;;7.20;99.90;;;;;;5032864;28;20314;-64
2022/01/26 14:28:39;;;;;;;19.75;10.63;;;7.20;99.90;;;;;;5036174;28;20250;-64
2022/01/26 14:31:22;;;;;;;22.75;12.38;;;7.20;99.90;;;;;;5051305;28;20233;-64
2022/01/26 14:36:47;;;;;;;17.23;10.18;;;7.20;99.90;;;;;;5029162;28;20218;-64
2022/01/26 14:39:52;;;;;;;24.80;12.38;;;7.20;99.90;;;;;;5052632;28;20278;-64
2022/01/26 15:10:50;;;;;;;28.17;12.70;;;6.80;99.90;;;;;;5032374;28;20246;-64
2022/01/26 15:35:07;;;;;;;27.58;15.02;;;6.90;99.90;;;;;;5055445;28;20263;-64
2022/01/26 15:40:35;;;;;;;33.30;15.88;;;7.00;99.90;;;;;;5040747;28;20300;-64
2022/01/26 15:51:49;;;;;;;38.58;17.55;;;6.90;99.90;;;;;;5050190;28;20643;-64